CG Aspen — NTUG — position and weather

sailwx.info

Track history (hours):
 
Tides and Currents Weather Stations Pressure Air Temp Water Temp Dewpoint Dewpoint Depression Visibility Wind Speed Wind Dir Waves Ship Positions

CG Aspen

Last reported at 2017-Oct-03 20:55 UTC. Time now 2017-Oct-22 21:15 UTC.
Position N 33°43' W 118°16'.
Warning: this ship's position is 19 days out of date.

Length 68 m; draft 4 m.

Type: Military. MMSI: 303865000.

Date/timePositionNaut miles runAvg speedWind from/ knotsBaromVisibWave heightAir tempDewpointWater temp
2017-Oct-03 20:55N 33°43' W 118°16'0 0.0
2017-Oct-03 19:40N 33°43' W 118°16'0 0.0
2017-Oct-03 19:22N 33°43' W 118°16'0 0.0
2017-Oct-03 18:40N 33°43' W 118°16'0 0.0
2017-Oct-03 18:21N 33°43' W 118°16'0 0.0
2017-Oct-03 17:46N 33°43' W 118°16'0 0.0
2017-Oct-03 17:22N 33°43' W 118°16'0 0.0
2017-Oct-03 16:58N 33°43' W 118°16'0 0.0
2017-Oct-03 16:28N 33°43' W 118°16'0 0.0
2017-Oct-03 14:39N 33°43' W 118°16'0 0.0
2017-Oct-03 09:46N 33°43' W 118°16'0 0.0
2017-Oct-03 08:19N 33°43' W 118°16'0 0.0
2017-Oct-03 07:55N 33°43' W 118°16'0 0.0
2017-Oct-03 07:22N 33°43' W 118°16'0 0.0
2017-Oct-03 04:43N 33°43' W 118°16'0 0.0
2017-Oct-03 03:37N 33°43' W 118°16'0 0.0
2017-Oct-03 03:13N 33°43' W 118°16'0 0.0
2017-Oct-03 02:55N 33°43' W 118°16'0 0.0
2017-Oct-03 02:19N 33°43' W 118°16'0 0.0
2017-Oct-03 01:55N 33°43' W 118°16'0 0.0
2017-Oct-03 01:14N 33°43' W 118°16'0 0.0
2017-Oct-03 00:32N 33°43' W 118°16'0 0.0
2017-Oct-03 00:25N 33°43' W 118°16'0 0.0
2017-Oct-02 22:56N 33°43' W 118°16'0 0.0
2017-Oct-02 22:20N 33°43' W 118°16'0 0.0
2017-Oct-02 21:56N 33°43' W 118°16'0 0.0
2017-Oct-02 20:50N 33°43' W 118°16'0 0.0
2017-Oct-02 20:26N 33°43' W 118°16'0 0.0
2017-Oct-02 19:56N 33°43' W 118°16'0 0.0
2017-Oct-02 19:26N 33°43' W 118°16'0 0.0
2017-Oct-02 18:56N 33°43' W 118°16'0 0.0
2017-Oct-02 18:20N 33°43' W 118°16'0 0.0
2017-Oct-02 17:56N 33°43' W 118°16'0 0.0
2017-Oct-02 17:26N 33°43' W 118°16'0 0.0
2017-Oct-02 16:50N 33°43' W 118°16'0 0.0
2017-Oct-02 16:21N 33°43' W 118°16'0 0.0
2017-Oct-02 15:57N 33°43' W 118°16'0 0.0
2017-Oct-02 06:09N 33°43' W 118°16'0 0.0
2017-Oct-02 05:48N 33°43' W 118°16'0 0.0
2017-Oct-02 05:15N 33°43' W 118°16'0 0.0
2017-Oct-02 04:48N 33°43' W 118°16'0 0.0
2017-Oct-02 02:59N 33°43' W 118°16'0 0.0
2017-Oct-02 01:02N 33°43' W 118°16'0 0.0
2017-Oct-02 00:56N 33°43' W 118°16'0 0.0
2017-Oct-02 00:22N 33°43' W 118°16'0 0.0
2017-Oct-01 23:48N 33°43' W 118°16'0 0.0
2017-Oct-01 23:09N 33°43' W 118°16'0 0.0
2017-Oct-01 23:00N 33°43' W 118°16'0 0.0
2017-Oct-01 22:27N 33°43' W 118°16'0 0.0
2017-Oct-01 21:48N 33°43' W 118°16'0 0.0
2017-Oct-01 21:24N 33°43' W 118°16'0 0.0
2017-Oct-01 20:57N 33°43' W 118°16'0 0.0
2017-Oct-01 19:41N 33°43' W 118°16'0 0.0
2017-Oct-01 19:29N 33°43' W 118°16'0 0.0
2017-Oct-01 19:00N 33°43' W 118°16'0 0.0
2017-Oct-01 18:18N 33°43' W 118°16'0 0.0
2017-Oct-01 18:00N 33°43' W 118°16'0 0.0
2017-Oct-01 17:30N 33°43' W 118°16'0 0.0
2017-Oct-01 16:54N 33°43' W 118°16'0 0.0
2017-Oct-01 16:27N 33°43' W 118°16'0 1.0
2017-Oct-01 16:01N 33°43' W 118°16'4 8.2
2017-Oct-01 15:29N 33°39' W 118°15'4 8.7
2017-Oct-01 15:00N 33°36' W 118°19'5 9.1
2017-Oct-01 14:30N 33°38' W 118°24'4 7.9
2017-Oct-01 14:00N 33°40' W 118°28'4 7.4
2017-Oct-01 13:30N 33°42' W 118°32'4 7.2
2017-Oct-01 13:00N 33°43' W 118°36'4 7.2
2017-Oct-01 12:30N 33°45' W 118°40'4 7.0
2017-Oct-01 12:00N 33°47' W 118°43'3 6.9
2017-Oct-01 11:30N 33°49' W 118°47'4 8.2
2017-Oct-01 11:00N 33°51' W 118°51'4 7.6
2017-Oct-01 10:30N 33°53' W 118°55'4 7.4
2017-Oct-01 10:00N 33°54' W 118°59'4 7.2
2017-Oct-01 09:30N 33°56' W 119°03'4 7.5
2017-Oct-01 09:00N 33°58' W 119°07'4 7.8
2017-Oct-01 08:29N 34°00' W 119°11'4 7.9
2017-Oct-01 08:00N 34°02' W 119°15'4 8.1
2017-Oct-01 07:30N 34°03' W 119°20'4 8.4
2017-Oct-01 07:00N 34°04' W 119°25'4 8.3
2017-Oct-01 06:30N 34°05' W 119°30'4 8.2
2017-Oct-01 05:59N 34°07' W 119°34'17 8.2
2017-Oct-01 03:58N 34°11' W 119°54'4 7.6
2017-Oct-01 03:29N 34°12' W 119°58'4 7.7
2017-Oct-01 02:57N 34°13' W 120°03'220 8.6
2017-Sep-30 01:20N 37°11' W 122°43'3 9.0
2017-Sep-30 01:00N 37°14' W 122°43'5 9.0
2017-Sep-30 00:30N 37°18' W 122°44'4 9.0
2017-Sep-30 00:00N 37°23' W 122°44'5 9.2
2017-Sep-29 23:30N 37°27' W 122°44'5 9.4
2017-Sep-29 23:00N 37°32' W 122°44'5 9.6
2017-Sep-29 22:30N 37°37' W 122°44'713.4
2017-Sep-29 22:00N 37°43' W 122°40'4 8.5
2017-Sep-29 21:30N 37°46' W 122°37'0 0.3
2017-Sep-29 21:01N 37°46' W 122°37'2 4.3
2017-Sep-29 20:30N 37°47' W 122°35'611.1
2017-Sep-29 20:00N 37°49' W 122°28'4 8.5
2017-Sep-29 19:30N 37°49' W 122°23'2 3.8
2017-Sep-29 19:01N 37°47' W 122°21'2 4.0
2017-Sep-29 18:30N 37°45' W 122°22'1 2.7
2017-Sep-29 18:01N 37°44' W 122°21'2 3.4
2017-Sep-29 17:25N 37°42' W 122°20'0 0.1
2017-Sep-29 17:00N 37°42' W 122°20'3 5.8
2017-Sep-29 16:30N 37°45' W 122°21'4 7.7
2017-Sep-29 16:00N 37°49' W 122°22'0 0.3
2017-Sep-29 15:30N 37°49' W 122°22'0 0.0
2017-Sep-29 14:58N 37°49' W 122°22'0 0.0
2017-Sep-29 14:30N 37°49' W 122°22'0 0.0
2017-Sep-29 14:00N 37°49' W 122°22'0 0.0
2017-Sep-29 13:27N 37°49' W 122°22'0 0.0
2017-Sep-29 12:57N 37°49' W 122°22'0 0.0
2017-Sep-29 12:30N 37°49' W 122°22'0 0.0
2017-Sep-29 12:00N 37°49' W 122°22'0 0.0
2017-Sep-29 11:30N 37°49' W 122°22'0 0.0
2017-Sep-29 10:57N 37°49' W 122°22'0 0.0
2017-Sep-29 10:30N 37°49' W 122°22'0 0.0
2017-Sep-29 09:57N 37°49' W 122°22'0 0.0
2017-Sep-29 09:27N 37°49' W 122°22'0 0.0
2017-Sep-29 08:57N 37°49' W 122°22'0 0.0
2017-Sep-29 08:27N 37°49' W 122°22'0 0.0
2017-Sep-29 07:58N 37°49' W 122°22'0 0.0
2017-Sep-29 07:28N 37°49' W 122°22'0 0.0
2017-Sep-29 07:00N 37°49' W 122°22'0 0.0
2017-Sep-29 06:30N 37°49' W 122°22'0 0.0
2017-Sep-29 06:00N 37°49' W 122°22'0 0.0
2017-Sep-29 05:30N 37°49' W 122°22'0 0.0
2017-Sep-29 05:00N 37°49' W 122°22'0 0.0
2017-Sep-29 04:30N 37°49' W 122°22'0 0.0
2017-Sep-29 03:57N 37°49' W 122°22'0 0.0
2017-Sep-29 03:30N 37°49' W 122°22'0 0.0
2017-Sep-29 02:57N 37°49' W 122°22'0 0.0
2017-Sep-29 02:30N 37°49' W 122°22'0 0.0
2017-Sep-29 02:00N 37°49' W 122°22'0 0.0
2017-Sep-29 01:30N 37°49' W 122°22'0 0.0
2017-Sep-29 01:00N 37°49' W 122°22'0 0.0
2017-Sep-29 00:30N 37°49' W 122°22'0 0.0
2017-Sep-29 00:00N 37°49' W 122°22'0 0.0
2017-Sep-28 23:30N 37°49' W 122°22'0 0.0
2017-Sep-28 23:00N 37°49' W 122°22'0 0.0
2017-Sep-28 22:30N 37°49' W 122°22'0 0.0
2017-Sep-28 21:58N 37°49' W 122°22'0 0.0
2017-Sep-28 21:27N 37°49' W 122°22'0 0.0
2017-Sep-28 20:57N 37°49' W 122°22'0 0.0
2017-Sep-28 20:27N 37°49' W 122°22'0 0.0
2017-Sep-28 20:00N 37°49' W 122°22'0 0.0
2017-Sep-28 19:30N 37°49' W 122°22'0 0.0
2017-Sep-28 19:00N 37°49' W 122°22'0 0.0
2017-Sep-28 18:30N 37°49' W 122°22'0 0.0
2017-Sep-28 18:00N 37°49' W 122°22'0 0.0
2017-Sep-28 17:30N 37°49' W 122°22'0 0.0
2017-Sep-28 17:00N 37°49' W 122°22'0 0.0
2017-Sep-28 16:30N 37°49' W 122°22'0 0.0
2017-Sep-28 16:00N 37°49' W 122°22'0 0.0
2017-Sep-28 15:30N 37°49' W 122°22'0 0.0
2017-Sep-28 14:58N 37°49' W 122°22'0 0.0
2017-Sep-28 14:30N 37°49' W 122°22'0 0.0
2017-Sep-28 13:58N 37°49' W 122°22'0 0.0
2017-Sep-28 13:28N 37°49' W 122°22'0 0.0
2017-Sep-28 13:00N 37°49' W 122°22'0 0.0
2017-Sep-28 12:27N 37°49' W 122°22'0 0.0
2017-Sep-28 11:55N 37°49' W 122°22'0 0.0
2017-Sep-28 11:27N 37°49' W 122°22'0 0.0
2017-Sep-28 10:55N 37°49' W 122°22'0 0.0
2017-Sep-28 10:27N 37°49' W 122°22'0 0.0
2017-Sep-28 10:01N 37°49' W 122°22'0 0.0
2017-Sep-28 09:30N 37°49' W 122°22'0 0.0
2017-Sep-28 09:00N 37°49' W 122°22'0 0.0
2017-Sep-28 08:30N 37°49' W 122°22'0 0.0
2017-Sep-28 08:00N 37°49' W 122°22'0 0.0
2017-Sep-28 07:30N 37°49' W 122°22'0 0.0
2017-Sep-28 07:00N 37°49' W 122°22'0 0.0
2017-Sep-28 06:30N 37°49' W 122°22'0 0.0
2017-Sep-28 06:00N 37°49' W 122°22'0 0.0
2017-Sep-28 05:30N 37°49' W 122°22'0 0.0
2017-Sep-28 05:00N 37°49' W 122°22'0 0.0
2017-Sep-28 04:30N 37°49' W 122°22'0 0.0
2017-Sep-28 04:00N 37°49' W 122°22'0 0.0
2017-Sep-28 03:30N 37°49' W 122°22'0 0.0
2017-Sep-28 02:58N 37°49' W 122°22'0 0.0
2017-Sep-28 02:28N 37°49' W 122°22'0 0.0
2017-Sep-28 01:55N 37°49' W 122°22'0 0.0
2017-Sep-28 01:25N 37°49' W 122°22'0 0.0
2017-Sep-28 00:57N 37°49' W 122°22'0 0.0
2017-Sep-28 00:27N 37°49' W 122°22'0 0.0
2017-Sep-28 00:01N 37°49' W 122°22'0 0.0
2017-Sep-27 23:30N 37°49' W 122°22'0 0.0
2017-Sep-27 23:00N 37°49' W 122°22'0 0.0
2017-Sep-27 22:30N 37°49' W 122°22'0 0.0
2017-Sep-27 22:00N 37°49' W 122°22'0 0.0
2017-Sep-27 21:30N 37°49' W 122°22'0 0.0
2017-Sep-27 21:00N 37°49' W 122°22'0 0.0
2017-Sep-27 20:30N 37°49' W 122°22'0 0.0
2017-Sep-27 20:00N 37°49' W 122°22'0 0.0
2017-Sep-27 19:27N 37°49' W 122°22'0 0.0
2017-Sep-27 18:57N 37°49' W 122°22'0 0.0
2017-Sep-27 18:30N 37°49' W 122°22'0 0.0
2017-Sep-27 18:00N 37°49' W 122°22'0 0.0
2017-Sep-27 17:30N 37°49' W 122°22'0 0.0
2017-Sep-27 17:00N 37°49' W 122°22'0 0.0
2017-Sep-27 16:28N 37°49' W 122°22'0 0.0
2017-Sep-27 16:00N 37°49' W 122°22'0 0.0
2017-Sep-27 15:30N 37°49' W 122°22'0 0.0
2017-Sep-27 14:57N 37°49' W 122°22'0 0.0
2017-Sep-27 14:27N 37°49' W 122°22'0 0.0
2017-Sep-27 13:57N 37°49' W 122°22'0 0.0
2017-Sep-27 13:27N 37°49' W 122°22'0 0.0
2017-Sep-27 12:57N 37°49' W 122°22'0 0.0
2017-Sep-27 12:30N 37°49' W 122°22'0 0.0
2017-Sep-27 11:57N 37°49' W 122°22'0 0.0
2017-Sep-27 11:30N 37°49' W 122°22'0 0.0
2017-Sep-27 11:00N 37°49' W 122°22'0 0.0
2017-Sep-27 10:30N 37°49' W 122°22'0 0.0
2017-Sep-27 10:00N 37°49' W 122°22'0 0.0
2017-Sep-27 09:30N 37°49' W 122°22'0 0.0
2017-Sep-27 09:00N 37°49' W 122°22'0 0.0
2017-Sep-27 08:30N 37°49' W 122°22'0 0.0
2017-Sep-27 08:00N 37°49' W 122°22'0 0.0
2017-Sep-27 07:28N 37°49' W 122°22'0 0.0
2017-Sep-27 06:58N 37°49' W 122°22'0 0.0
2017-Sep-27 06:28N 37°49' W 122°22'0 0.0
2017-Sep-27 06:01N 37°49' W 122°22'0 0.0
2017-Sep-27 05:30N 37°49' W 122°22'0 0.0
2017-Sep-27 04:57N 37°49' W 122°22'0 0.0
2017-Sep-27 04:30N 37°49' W 122°22'0 0.0
2017-Sep-27 04:00N 37°49' W 122°22'0 0.0
2017-Sep-27 03:30N 37°49' W 122°22'0 0.0
2017-Sep-27 03:00N 37°49' W 122°22'0 0.0
2017-Sep-27 02:30N 37°49' W 122°22'0 0.0
2017-Sep-27 01:58N 37°49' W 122°22'0 0.0
2017-Sep-27 01:30N 37°49' W 122°22'0 0.0
2017-Sep-27 00:58N 37°49' W 122°22'0 0.0
2017-Sep-27 00:30N 37°49' W 122°22'0 0.0
2017-Sep-27 00:00N 37°49' W 122°22'0 0.0
2017-Sep-26 23:27N 37°49' W 122°22'0 0.0
2017-Sep-26 23:00N 37°49' W 122°22'0 0.0
2017-Sep-26 22:30N 37°49' W 122°22'0 0.0
2017-Sep-26 22:00N 37°49' W 122°22'0 0.0
2017-Sep-26 21:24N 37°49' W 122°22'0 0.0
2017-Sep-26 20:57N 37°49' W 122°22'0 0.0
2017-Sep-26 20:27N 37°49' W 122°22'0 0.0
2017-Sep-26 19:57N 37°49' W 122°22'0 0.0
2017-Sep-26 19:27N 37°49' W 122°22'0 0.0
2017-Sep-26 18:49N 37°49' W 122°22'0 0.0
2017-Sep-26 18:27N 37°49' W 122°22'0 0.0
2017-Sep-26 17:57N 37°49' W 122°22'0 0.0
2017-Sep-26 17:28N 37°49' W 122°22'0 0.0
2017-Sep-26 17:00N 37°49' W 122°22'0 0.0
2017-Sep-26 16:30N 37°49' W 122°22'0 0.0
2017-Sep-26 16:00N 37°49' W 122°22'0 0.0
2017-Sep-26 15:30N 37°49' W 122°22'0 0.0
2017-Sep-26 15:00N 37°49' W 122°22'0 0.0
2017-Sep-26 14:27N 37°49' W 122°22'0 0.0
2017-Sep-26 14:00N 37°49' W 122°22'0 0.0
2017-Sep-26 13:30N 37°49' W 122°22'0 0.0
2017-Sep-26 13:00N 37°49' W 122°22'0 0.0
2017-Sep-26 12:30N 37°49' W 122°22'0 0.0
2017-Sep-26 11:57N 37°49' W 122°22'0 0.0
2017-Sep-26 11:30N 37°49' W 122°22'0 0.0
2017-Sep-26 10:57N 37°49' W 122°22'0 0.0
2017-Sep-26 10:27N 37°49' W 122°22'0 0.0
2017-Sep-26 09:57N 37°49' W 122°22'0 0.0
2017-Sep-26 09:27N 37°49' W 122°22'0 0.0
2017-Sep-26 08:57N 37°49' W 122°22'0 0.0
2017-Sep-26 08:27N 37°49' W 122°22'0 0.0
2017-Sep-26 07:57N 37°49' W 122°22'0 0.0
2017-Sep-26 07:28N 37°49' W 122°22'0 0.0
2017-Sep-26 07:00N 37°49' W 122°22'0 0.0
2017-Sep-26 06:30N 37°49' W 122°22'0 0.0
2017-Sep-26 06:00N 37°49' W 122°22'0 0.0
2017-Sep-26 05:28N 37°49' W 122°22'0 0.0
2017-Sep-26 05:00N 37°49' W 122°22'0 0.0
2017-Sep-26 04:30N 37°49' W 122°22'0 0.0
2017-Sep-26 04:00N 37°49' W 122°22'0 0.0
2017-Sep-26 03:30N 37°49' W 122°22'0 0.0
2017-Sep-26 03:00N 37°49' W 122°22'0 0.0
2017-Sep-26 02:30N 37°49' W 122°22'0 0.0
2017-Sep-26 02:00N 37°49' W 122°22'0 0.0
2017-Sep-26 01:30N 37°49' W 122°22'0 0.0
2017-Sep-26 01:00N 37°49' W 122°22'0 0.0
2017-Sep-26 00:30N 37°49' W 122°22'0 0.0
2017-Sep-25 23:57N 37°49' W 122°22'0 0.0
2017-Sep-25 23:25N 37°49' W 122°22'0 0.0
2017-Sep-25 22:57N 37°49' W 122°22'0 0.0
2017-Sep-25 22:28N 37°49' W 122°22'0 0.0
2017-Sep-25 21:58N 37°49' W 122°22'0 0.0
2017-Sep-25 21:28N 37°49' W 122°22'0 0.0
2017-Sep-25 21:00N 37°49' W 122°22'0 0.0
2017-Sep-25 20:30N 37°49' W 122°22'0 0.0
2017-Sep-25 20:00N 37°49' W 122°22'0 0.0
2017-Sep-25 19:30N 37°49' W 122°22'0 0.0
2017-Sep-25 19:00N 37°49' W 122°22'0 0.0
2017-Sep-25 18:27N 37°49' W 122°22'0 0.0
2017-Sep-25 18:00N 37°49' W 122°22'0 0.0
2017-Sep-25 17:30N 37°49' W 122°22'0 0.0
2017-Sep-25 17:00N 37°49' W 122°22'0 0.0
2017-Sep-25 16:30N 37°49' W 122°22'0 0.0
2017-Sep-25 16:00N 37°49' W 122°22'0 0.0
2017-Sep-25 15:30N 37°49' W 122°22'0 0.0
2017-Sep-25 14:55N 37°49' W 122°22'0 0.0
2017-Sep-25 14:27N 37°49' W 122°22'0 0.0
2017-Sep-25 13:57N 37°49' W 122°22'0 0.0
2017-Sep-25 13:27N 37°49' W 122°22'0 0.0
2017-Sep-25 12:58N 37°49' W 122°22'0 0.0
2017-Sep-25 12:28N 37°49' W 122°22'0 0.0
2017-Sep-25 11:58N 37°49' W 122°22'0 0.0
2017-Sep-25 11:30N 37°49' W 122°22'0 0.0
2017-Sep-25 10:58N 37°49' W 122°22'0 0.0
2017-Sep-25 10:28N 37°49' W 122°22'0 0.0
2017-Sep-25 10:00N 37°49' W 122°22'0 0.0
2017-Sep-25 09:30N 37°49' W 122°22'0 0.0
2017-Sep-25 08:58N 37°49' W 122°22'0 0.0
2017-Sep-25 08:30N 37°49' W 122°22'0 0.0
2017-Sep-25 07:57N 37°49' W 122°22'0 0.0
2017-Sep-25 07:30N 37°49' W 122°22'0 0.0
2017-Sep-25 06:57N 37°49' W 122°22'0 0.0
2017-Sep-25 06:27N 37°49' W 122°22'0 0.0
2017-Sep-25 05:57N 37°49' W 122°22'0 0.0
2017-Sep-25 05:27N 37°49' W 122°22'0 0.0
2017-Sep-25 04:57N 37°49' W 122°22'0 0.0
2017-Sep-25 04:28N 37°49' W 122°22'0 0.0
2017-Sep-25 03:58N 37°49' W 122°22'0 0.0
2017-Sep-25 03:25N 37°49' W 122°22'0 0.0
2017-Sep-25 03:01N 37°49' W 122°22'0 0.0
2017-Sep-25 02:30N 37°49' W 122°22'0 0.0
2017-Sep-25 02:00N 37°49' W 122°22'0 0.0
2017-Sep-25 01:30N 37°49' W 122°22'0 0.0
2017-Sep-25 00:54N 37°49' W 122°22'0 0.0
2017-Sep-25 00:30N 37°49' W 122°22'0 0.0
2017-Sep-24 23:58N 37°49' W 122°22'0 0.0
2017-Sep-24 23:30N 37°49' W 122°22'0 0.0
2017-Sep-24 23:00N 37°49' W 122°22'0 0.0
2017-Sep-24 22:27N 37°49' W 122°22'0 0.0
2017-Sep-24 21:57N 37°49' W 122°22'0 0.0
2017-Sep-24 21:27N 37°49' W 122°22'0 0.0
2017-Sep-24 20:57N 37°49' W 122°22'0 0.0
2017-Sep-24 20:27N 37°49' W 122°22'0 0.0
2017-Sep-24 19:57N 37°49' W 122°22'0 0.0
2017-Sep-24 19:27N 37°49' W 122°22'0 0.0
2017-Sep-24 18:57N 37°49' W 122°22'0 0.0
2017-Sep-24 18:27N 37°49' W 122°22'0 0.0
2017-Sep-24 17:57N 37°49' W 122°22'0 0.0
2017-Sep-24 17:27N 37°49' W 122°22'0 0.0
2017-Sep-24 16:58N 37°49' W 122°22'0 0.0
2017-Sep-24 16:31N 37°49' W 122°22'0 0.0
2017-Sep-24 15:58N 37°49' W 122°22'0 0.0
2017-Sep-24 15:30N 37°49' W 122°22'0 0.0
2017-Sep-24 14:58N 37°49' W 122°22'0 0.0
2017-Sep-24 14:30N 37°49' W 122°22'0 0.0
2017-Sep-24 14:00N 37°49' W 122°22'0 0.0
2017-Sep-24 13:30N 37°49' W 122°22'0 0.0
2017-Sep-24 13:00N 37°49' W 122°22'0 0.0
2017-Sep-24 12:25N 37°49' W 122°22'0 0.0
2017-Sep-24 11:58N 37°49' W 122°22'0 0.0
2017-Sep-24 11:28N 37°49' W 122°22'0 0.0
2017-Sep-24 10:58N 37°49' W 122°22'0 0.0
2017-Sep-24 10:27N 37°49' W 122°22'0 0.0
2017-Sep-24 09:57N 37°49' W 122°22'0 0.0
2017-Sep-24 09:27N 37°49' W 122°22'0 0.0
2017-Sep-24 08:57N 37°49' W 122°22'0 0.0
2017-Sep-24 08:30N 37°49' W 122°22'0 0.0
2017-Sep-24 08:00N 37°49' W 122°22'0 0.0
2017-Sep-24 07:30N 37°49' W 122°22'0 0.0
2017-Sep-24 07:00N 37°49' W 122°22'0 0.0
2017-Sep-24 06:30N 37°49' W 122°22'0 0.0
2017-Sep-24 06:00N 37°49' W 122°22'0 0.0
2017-Sep-24 05:28N 37°49' W 122°22'0 0.0
2017-Sep-24 04:55N 37°49' W 122°22'0 0.0
2017-Sep-24 04:28N 37°49' W 122°22'0 0.0
2017-Sep-24 03:58N 37°49' W 122°22'0 0.0
2017-Sep-24 03:28N 37°49' W 122°22'0 0.0
2017-Sep-24 02:58N 37°49' W 122°22'0 0.0
2017-Sep-24 02:28N 37°49' W 122°22'0 0.0
2017-Sep-24 01:58N 37°49' W 122°22'0 0.0
2017-Sep-24 01:28N 37°49' W 122°22'0 0.0
2017-Sep-24 00:57N 37°49' W 122°22'0 0.0
2017-Sep-24 00:27N 37°49' W 122°22'0 0.0
2017-Sep-24 00:00N 37°49' W 122°22'0 0.0
2017-Sep-23 23:30N 37°49' W 122°22'0 0.0
2017-Sep-23 23:00N 37°49' W 122°22'0 0.0
2017-Sep-23 22:30N 37°49' W 122°22'0 0.0
2017-Sep-23 22:00N 37°49' W 122°22'0 0.0
2017-Sep-23 21:30N 37°49' W 122°22'  
Track history (hours):
 
Tides and Currents Weather Stations Pressure Air Temp Water Temp Dewpoint Dewpoint Depression Visibility Wind Speed Wind Dir Waves Ship Positions

CG Aspen

Last reported at 2017-Oct-03 20:55 UTC. Time now 2017-Oct-22 21:15 UTC.
Position N 33°43' W 118°16'.
Warning: this ship's position is 19 days out of date.

Length 68 m; draft 4 m.

Type: Military. MMSI: 303865000.

Date/timePositionNaut miles runAvg speedWind from/ knotsBaromVisibWave heightAir tempDewpointWater temp
2017-Oct-03 20:55N 33°43' W 118°16'0 0.0
2017-Oct-03 19:40N 33°43' W 118°16'0 0.0
2017-Oct-03 19:22N 33°43' W 118°16'0 0.0
2017-Oct-03 18:40N 33°43' W 118°16'0 0.0
2017-Oct-03 18:21N 33°43' W 118°16'0 0.0
2017-Oct-03 17:46N 33°43' W 118°16'0 0.0
2017-Oct-03 17:22N 33°43' W 118°16'0 0.0
2017-Oct-03 16:58N 33°43' W 118°16'0 0.0
2017-Oct-03 16:28N 33°43' W 118°16'0 0.0
2017-Oct-03 14:39N 33°43' W 118°16'0 0.0
2017-Oct-03 09:46N 33°43' W 118°16'0 0.0
2017-Oct-03 08:19N 33°43' W 118°16'0 0.0
2017-Oct-03 07:55N 33°43' W 118°16'0 0.0
2017-Oct-03 07:22N 33°43' W 118°16'0 0.0
2017-Oct-03 04:43N 33°43' W 118°16'0 0.0
2017-Oct-03 03:37N 33°43' W 118°16'0 0.0
2017-Oct-03 03:13N 33°43' W 118°16'0 0.0
2017-Oct-03 02:55N 33°43' W 118°16'0 0.0
2017-Oct-03 02:19N 33°43' W 118°16'0 0.0
2017-Oct-03 01:55N 33°43' W 118°16'0 0.0
2017-Oct-03 01:14N 33°43' W 118°16'0 0.0
2017-Oct-03 00:32N 33°43' W 118°16'0 0.0
2017-Oct-03 00:25N 33°43' W 118°16'0 0.0
2017-Oct-02 22:56N 33°43' W 118°16'0 0.0
2017-Oct-02 22:20N 33°43' W 118°16'0 0.0
2017-Oct-02 21:56N 33°43' W 118°16'0 0.0
2017-Oct-02 20:50N 33°43' W 118°16'0 0.0
2017-Oct-02 20:26N 33°43' W 118°16'0 0.0
2017-Oct-02 19:56N 33°43' W 118°16'0 0.0
2017-Oct-02 19:26N 33°43' W 118°16'0 0.0
2017-Oct-02 18:56N 33°43' W 118°16'0 0.0
2017-Oct-02 18:20N 33°43' W 118°16'0 0.0
2017-Oct-02 17:56N 33°43' W 118°16'0 0.0
2017-Oct-02 17:26N 33°43' W 118°16'0 0.0
2017-Oct-02 16:50N 33°43' W 118°16'0 0.0
2017-Oct-02 16:21N 33°43' W 118°16'0 0.0
2017-Oct-02 15:57N 33°43' W 118°16'0 0.0
2017-Oct-02 06:09N 33°43' W 118°16'0 0.0
2017-Oct-02 05:48N 33°43' W 118°16'0 0.0
2017-Oct-02 05:15N 33°43' W 118°16'0 0.0
2017-Oct-02 04:48N 33°43' W 118°16'0 0.0
2017-Oct-02 02:59N 33°43' W 118°16'0 0.0
2017-Oct-02 01:02N 33°43' W 118°16'0 0.0
2017-Oct-02 00:56N 33°43' W 118°16'0 0.0
2017-Oct-02 00:22N 33°43' W 118°16'0 0.0
2017-Oct-01 23:48N 33°43' W 118°16'0 0.0
2017-Oct-01 23:09N 33°43' W 118°16'0 0.0
2017-Oct-01 23:00N 33°43' W 118°16'0 0.0
2017-Oct-01 22:27N 33°43' W 118°16'0 0.0
2017-Oct-01 21:48N 33°43' W 118°16'0 0.0
2017-Oct-01 21:24N 33°43' W 118°16'0 0.0
2017-Oct-01 20:57N 33°43' W 118°16'0 0.0
2017-Oct-01 19:41N 33°43' W 118°16'0 0.0
2017-Oct-01 19:29N 33°43' W 118°16'0 0.0
2017-Oct-01 19:00N 33°43' W 118°16'0 0.0
2017-Oct-01 18:18N 33°43' W 118°16'0 0.0
2017-Oct-01 18:00N 33°43' W 118°16'0 0.0
2017-Oct-01 17:30N 33°43' W 118°16'0 0.0
2017-Oct-01 16:54N 33°43' W 118°16'0 0.0
2017-Oct-01 16:27N 33°43' W 118°16'0 1.0
2017-Oct-01 16:01N 33°43' W 118°16'4 8.2
2017-Oct-01 15:29N 33°39' W 118°15'4 8.7
2017-Oct-01 15:00N 33°36' W 118°19'5 9.1
2017-Oct-01 14:30N 33°38' W 118°24'4 7.9
2017-Oct-01 14:00N 33°40' W 118°28'4 7.4
2017-Oct-01 13:30N 33°42' W 118°32'4 7.2
2017-Oct-01 13:00N 33°43' W 118°36'4 7.2
2017-Oct-01 12:30N 33°45' W 118°40'4 7.0
2017-Oct-01 12:00N 33°47' W 118°43'3 6.9
2017-Oct-01 11:30N 33°49' W 118°47'4 8.2
2017-Oct-01 11:00N 33°51' W 118°51'4 7.6
2017-Oct-01 10:30N 33°53' W 118°55'4 7.4
2017-Oct-01 10:00N 33°54' W 118°59'4 7.2
2017-Oct-01 09:30N 33°56' W 119°03'4 7.5
2017-Oct-01 09:00N 33°58' W 119°07'4 7.8
2017-Oct-01 08:29N 34°00' W 119°11'4 7.9
2017-Oct-01 08:00N 34°02' W 119°15'4 8.1
2017-Oct-01 07:30N 34°03' W 119°20'4 8.4
2017-Oct-01 07:00N 34°04' W 119°25'4 8.3
2017-Oct-01 06:30N 34°05' W 119°30'4 8.2
2017-Oct-01 05:59N 34°07' W 119°34'17 8.2
2017-Oct-01 03:58N 34°11' W 119°54'4 7.6
2017-Oct-01 03:29N 34°12' W 119°58'4 7.7
2017-Oct-01 02:57N 34°13' W 120°03'220 8.6
2017-Sep-30 01:20N 37°11' W 122°43'3 9.0
2017-Sep-30 01:00N 37°14' W 122°43'5 9.0
2017-Sep-30 00:30N 37°18' W 122°44'4 9.0
2017-Sep-30 00:00N 37°23' W 122°44'5 9.2
2017-Sep-29 23:30N 37°27' W 122°44'5 9.4
2017-Sep-29 23:00N 37°32' W 122°44'5 9.6
2017-Sep-29 22:30N 37°37' W 122°44'713.4
2017-Sep-29 22:00N 37°43' W 122°40'4 8.5
2017-Sep-29 21:30N 37°46' W 122°37'0 0.3
2017-Sep-29 21:01N 37°46' W 122°37'2 4.3
2017-Sep-29 20:30N 37°47' W 122°35'611.1
2017-Sep-29 20:00N 37°49' W 122°28'4 8.5
2017-Sep-29 19:30N 37°49' W 122°23'2 3.8
2017-Sep-29 19:01N 37°47' W 122°21'2 4.0
2017-Sep-29 18:30N 37°45' W 122°22'1 2.7
2017-Sep-29 18:01N 37°44' W 122°21'2 3.4
2017-Sep-29 17:25N 37°42' W 122°20'0 0.1
2017-Sep-29 17:00N 37°42' W 122°20'3 5.8
2017-Sep-29 16:30N 37°45' W 122°21'4 7.7
2017-Sep-29 16:00N 37°49' W 122°22'0 0.3
2017-Sep-29 15:30N 37°49' W 122°22'0 0.0
2017-Sep-29 14:58N 37°49' W 122°22'0 0.0
2017-Sep-29 14:30N 37°49' W 122°22'0 0.0
2017-Sep-29 14:00N 37°49' W 122°22'0 0.0
2017-Sep-29 13:27N 37°49' W 122°22'0 0.0
2017-Sep-29 12:57N 37°49' W 122°22'0 0.0
2017-Sep-29 12:30N 37°49' W 122°22'0 0.0
2017-Sep-29 12:00N 37°49' W 122°22'0 0.0
2017-Sep-29 11:30N 37°49' W 122°22'0 0.0
2017-Sep-29 10:57N 37°49' W 122°22'0 0.0
2017-Sep-29 10:30N 37°49' W 122°22'0 0.0
2017-Sep-29 09:57N 37°49' W 122°22'0 0.0
2017-Sep-29 09:27N 37°49' W 122°22'0 0.0
2017-Sep-29 08:57N 37°49' W 122°22'0 0.0
2017-Sep-29 08:27N 37°49' W 122°22'0 0.0
2017-Sep-29 07:58N 37°49' W 122°22'0 0.0
2017-Sep-29 07:28N 37°49' W 122°22'0 0.0
2017-Sep-29 07:00N 37°49' W 122°22'0 0.0
2017-Sep-29 06:30N 37°49' W 122°22'0 0.0
2017-Sep-29 06:00N 37°49' W 122°22'0 0.0
2017-Sep-29 05:30N 37°49' W 122°22'0 0.0
2017-Sep-29 05:00N 37°49' W 122°22'0 0.0
2017-Sep-29 04:30N 37°49' W 122°22'0 0.0
2017-Sep-29 03:57N 37°49' W 122°22'0 0.0
2017-Sep-29 03:30N 37°49' W 122°22'0 0.0
2017-Sep-29 02:57N 37°49' W 122°22'0 0.0
2017-Sep-29 02:30N 37°49' W 122°22'0 0.0
2017-Sep-29 02:00N 37°49' W 122°22'0 0.0
2017-Sep-29 01:30N 37°49' W 122°22'0 0.0
2017-Sep-29 01:00N 37°49' W 122°22'0 0.0
2017-Sep-29 00:30N 37°49' W 122°22'0 0.0
2017-Sep-29 00:00N 37°49' W 122°22'0 0.0
2017-Sep-28 23:30N 37°49' W 122°22'0 0.0
2017-Sep-28 23:00N 37°49' W 122°22'0 0.0
2017-Sep-28 22:30N 37°49' W 122°22'0 0.0
2017-Sep-28 21:58N 37°49' W 122°22'0 0.0
2017-Sep-28 21:27N 37°49' W 122°22'0 0.0
2017-Sep-28 20:57N 37°49' W 122°22'0 0.0
2017-Sep-28 20:27N 37°49' W 122°22'0 0.0
2017-Sep-28 20:00N 37°49' W 122°22'0 0.0
2017-Sep-28 19:30N 37°49' W 122°22'0 0.0
2017-Sep-28 19:00N 37°49' W 122°22'0 0.0
2017-Sep-28 18:30N 37°49' W 122°22'0 0.0
2017-Sep-28 18:00N 37°49' W 122°22'0 0.0
2017-Sep-28 17:30N 37°49' W 122°22'0 0.0
2017-Sep-28 17:00N 37°49' W 122°22'0 0.0
2017-Sep-28 16:30N 37°49' W 122°22'0 0.0
2017-Sep-28 16:00N 37°49' W 122°22'0 0.0
2017-Sep-28 15:30N 37°49' W 122°22'0 0.0
2017-Sep-28 14:58N 37°49' W 122°22'0 0.0
2017-Sep-28 14:30N 37°49' W 122°22'0 0.0
2017-Sep-28 13:58N 37°49' W 122°22'0 0.0
2017-Sep-28 13:28N 37°49' W 122°22'0 0.0
2017-Sep-28 13:00N 37°49' W 122°22'0 0.0
2017-Sep-28 12:27N 37°49' W 122°22'0 0.0
2017-Sep-28 11:55N 37°49' W 122°22'0 0.0
2017-Sep-28 11:27N 37°49' W 122°22'0 0.0
2017-Sep-28 10:55N 37°49' W 122°22'0 0.0
2017-Sep-28 10:27N 37°49' W 122°22'0 0.0
2017-Sep-28 10:01N 37°49' W 122°22'0 0.0
2017-Sep-28 09:30N 37°49' W 122°22'0 0.0
2017-Sep-28 09:00N 37°49' W 122°22'0 0.0
2017-Sep-28 08:30N 37°49' W 122°22'0 0.0
2017-Sep-28 08:00N 37°49' W 122°22'0 0.0
2017-Sep-28 07:30N 37°49' W 122°22'0 0.0
2017-Sep-28 07:00N 37°49' W 122°22'0 0.0
2017-Sep-28 06:30N 37°49' W 122°22'0 0.0
2017-Sep-28 06:00N 37°49' W 122°22'0 0.0
2017-Sep-28 05:30N 37°49' W 122°22'0 0.0
2017-Sep-28 05:00N 37°49' W 122°22'0 0.0
2017-Sep-28 04:30N 37°49' W 122°22'0 0.0
2017-Sep-28 04:00N 37°49' W 122°22'0 0.0
2017-Sep-28 03:30N 37°49' W 122°22'0 0.0
2017-Sep-28 02:58N 37°49' W 122°22'0 0.0
2017-Sep-28 02:28N 37°49' W 122°22'0 0.0
2017-Sep-28 01:55N 37°49' W 122°22'0 0.0
2017-Sep-28 01:25N 37°49' W 122°22'0 0.0
2017-Sep-28 00:57N 37°49' W 122°22'0 0.0
2017-Sep-28 00:27N 37°49' W 122°22'0 0.0
2017-Sep-28 00:01N 37°49' W 122°22'0 0.0
2017-Sep-27 23:30N 37°49' W 122°22'0 0.0
2017-Sep-27 23:00N 37°49' W 122°22'0 0.0
2017-Sep-27 22:30N 37°49' W 122°22'0 0.0
2017-Sep-27 22:00N 37°49' W 122°22'0 0.0
2017-Sep-27 21:30N 37°49' W 122°22'0 0.0
2017-Sep-27 21:00N 37°49' W 122°22'0 0.0
2017-Sep-27 20:30N 37°49' W 122°22'0 0.0
2017-Sep-27 20:00N 37°49' W 122°22'0 0.0
2017-Sep-27 19:27N 37°49' W 122°22'0 0.0
2017-Sep-27 18:57N 37°49' W 122°22'0 0.0
2017-Sep-27 18:30N 37°49' W 122°22'0 0.0
2017-Sep-27 18:00N 37°49' W 122°22'0 0.0
2017-Sep-27 17:30N 37°49' W 122°22'0 0.0
2017-Sep-27 17:00N 37°49' W 122°22'0 0.0
2017-Sep-27 16:28N 37°49' W 122°22'0 0.0
2017-Sep-27 16:00N 37°49' W 122°22'0 0.0
2017-Sep-27 15:30N 37°49' W 122°22'0 0.0
2017-Sep-27 14:57N 37°49' W 122°22'0 0.0
2017-Sep-27 14:27N 37°49' W 122°22'0 0.0
2017-Sep-27 13:57N 37°49' W 122°22'0 0.0
2017-Sep-27 13:27N 37°49' W 122°22'0 0.0
2017-Sep-27 12:57N 37°49' W 122°22'0 0.0
2017-Sep-27 12:30N 37°49' W 122°22'0 0.0
2017-Sep-27 11:57N 37°49' W 122°22'0 0.0
2017-Sep-27 11:30N 37°49' W 122°22'0 0.0
2017-Sep-27 11:00N 37°49' W 122°22'0 0.0
2017-Sep-27 10:30N 37°49' W 122°22'0 0.0
2017-Sep-27 10:00N 37°49' W 122°22'0 0.0
2017-Sep-27 09:30N 37°49' W 122°22'0 0.0
2017-Sep-27 09:00N 37°49' W 122°22'0 0.0
2017-Sep-27 08:30N 37°49' W 122°22'0 0.0
2017-Sep-27 08:00N 37°49' W 122°22'0 0.0
2017-Sep-27 07:28N 37°49' W 122°22'0 0.0
2017-Sep-27 06:58N 37°49' W 122°22'0 0.0
2017-Sep-27 06:28N 37°49' W 122°22'0 0.0
2017-Sep-27 06:01N 37°49' W 122°22'0 0.0
2017-Sep-27 05:30N 37°49' W 122°22'0 0.0
2017-Sep-27 04:57N 37°49' W 122°22'0 0.0
2017-Sep-27 04:30N 37°49' W 122°22'0 0.0
2017-Sep-27 04:00N 37°49' W 122°22'0 0.0
2017-Sep-27 03:30N 37°49' W 122°22'0 0.0
2017-Sep-27 03:00N 37°49' W 122°22'0 0.0
2017-Sep-27 02:30N 37°49' W 122°22'0 0.0
2017-Sep-27 01:58N 37°49' W 122°22'0 0.0
2017-Sep-27 01:30N 37°49' W 122°22'0 0.0
2017-Sep-27 00:58N 37°49' W 122°22'0 0.0
2017-Sep-27 00:30N 37°49' W 122°22'0 0.0
2017-Sep-27 00:00N 37°49' W 122°22'0 0.0
2017-Sep-26 23:27N 37°49' W 122°22'0 0.0
2017-Sep-26 23:00N 37°49' W 122°22'0 0.0
2017-Sep-26 22:30N 37°49' W 122°22'0 0.0
2017-Sep-26 22:00N 37°49' W 122°22'0 0.0
2017-Sep-26 21:24N 37°49' W 122°22'0 0.0
2017-Sep-26 20:57N 37°49' W 122°22'0 0.0
2017-Sep-26 20:27N 37°49' W 122°22'0 0.0
2017-Sep-26 19:57N 37°49' W 122°22'0 0.0
2017-Sep-26 19:27N 37°49' W 122°22'0 0.0
2017-Sep-26 18:49N 37°49' W 122°22'0 0.0
2017-Sep-26 18:27N 37°49' W 122°22'0 0.0
2017-Sep-26 17:57N 37°49' W 122°22'0 0.0
2017-Sep-26 17:28N 37°49' W 122°22'0 0.0
2017-Sep-26 17:00N 37°49' W 122°22'0 0.0
2017-Sep-26 16:30N 37°49' W 122°22'0 0.0
2017-Sep-26 16:00N 37°49' W 122°22'0 0.0
2017-Sep-26 15:30N 37°49' W 122°22'0 0.0
2017-Sep-26 15:00N 37°49' W 122°22'0 0.0
2017-Sep-26 14:27N 37°49' W 122°22'0 0.0
2017-Sep-26 14:00N 37°49' W 122°22'0 0.0
2017-Sep-26 13:30N 37°49' W 122°22'0 0.0
2017-Sep-26 13:00N 37°49' W 122°22'0 0.0
2017-Sep-26 12:30N 37°49' W 122°22'0 0.0
2017-Sep-26 11:57N 37°49' W 122°22'0 0.0
2017-Sep-26 11:30N 37°49' W 122°22'0 0.0
2017-Sep-26 10:57N 37°49' W 122°22'0 0.0
2017-Sep-26 10:27N 37°49' W 122°22'0 0.0
2017-Sep-26 09:57N 37°49' W 122°22'0 0.0
2017-Sep-26 09:27N 37°49' W 122°22'0 0.0
2017-Sep-26 08:57N 37°49' W 122°22'0 0.0
2017-Sep-26 08:27N 37°49' W 122°22'0 0.0
2017-Sep-26 07:57N 37°49' W 122°22'0 0.0
2017-Sep-26 07:28N 37°49' W 122°22'0 0.0
2017-Sep-26 07:00N 37°49' W 122°22'0 0.0
2017-Sep-26 06:30N 37°49' W 122°22'0 0.0
2017-Sep-26 06:00N 37°49' W 122°22'0 0.0
2017-Sep-26 05:28N 37°49' W 122°22'0 0.0
2017-Sep-26 05:00N 37°49' W 122°22'0 0.0
2017-Sep-26 04:30N 37°49' W 122°22'0 0.0
2017-Sep-26 04:00N 37°49' W 122°22'0 0.0
2017-Sep-26 03:30N 37°49' W 122°22'0 0.0
2017-Sep-26 03:00N 37°49' W 122°22'0 0.0
2017-Sep-26 02:30N 37°49' W 122°22'0 0.0
2017-Sep-26 02:00N 37°49' W 122°22'0 0.0
2017-Sep-26 01:30N 37°49' W 122°22'0 0.0
2017-Sep-26 01:00N 37°49' W 122°22'0 0.0
2017-Sep-26 00:30N 37°49' W 122°22'0 0.0
2017-Sep-25 23:57N 37°49' W 122°22'0 0.0
2017-Sep-25 23:25N 37°49' W 122°22'0 0.0
2017-Sep-25 22:57N 37°49' W 122°22'0 0.0
2017-Sep-25 22:28N 37°49' W 122°22'0 0.0
2017-Sep-25 21:58N 37°49' W 122°22'0 0.0
2017-Sep-25 21:28N 37°49' W 122°22'0 0.0
2017-Sep-25 21:00N 37°49' W 122°22'0 0.0
2017-Sep-25 20:30N 37°49' W 122°22'0 0.0
2017-Sep-25 20:00N 37°49' W 122°22'0 0.0
2017-Sep-25 19:30N 37°49' W 122°22'0 0.0
2017-Sep-25 19:00N 37°49' W 122°22'0 0.0
2017-Sep-25 18:27N 37°49' W 122°22'0 0.0
2017-Sep-25 18:00N 37°49' W 122°22'0 0.0
2017-Sep-25 17:30N 37°49' W 122°22'0 0.0
2017-Sep-25 17:00N 37°49' W 122°22'0 0.0
2017-Sep-25 16:30N 37°49' W 122°22'0 0.0
2017-Sep-25 16:00N 37°49' W 122°22'0 0.0
2017-Sep-25 15:30N 37°49' W 122°22'0 0.0
2017-Sep-25 14:55N 37°49' W 122°22'0 0.0
2017-Sep-25 14:27N 37°49' W 122°22'0 0.0
2017-Sep-25 13:57N 37°49' W 122°22'0 0.0
2017-Sep-25 13:27N 37°49' W 122°22'0 0.0
2017-Sep-25 12:58N 37°49' W 122°22'0 0.0
2017-Sep-25 12:28N 37°49' W 122°22'0 0.0
2017-Sep-25 11:58N 37°49' W 122°22'0 0.0
2017-Sep-25 11:30N 37°49' W 122°22'0 0.0
2017-Sep-25 10:58N 37°49' W 122°22'0 0.0
2017-Sep-25 10:28N 37°49' W 122°22'0 0.0
2017-Sep-25 10:00N 37°49' W 122°22'0 0.0
2017-Sep-25 09:30N 37°49' W 122°22'0 0.0
2017-Sep-25 08:58N 37°49' W 122°22'0 0.0
2017-Sep-25 08:30N 37°49' W 122°22'0 0.0
2017-Sep-25 07:57N 37°49' W 122°22'0 0.0
2017-Sep-25 07:30N 37°49' W 122°22'0 0.0
2017-Sep-25 06:57N 37°49' W 122°22'0 0.0
2017-Sep-25 06:27N 37°49' W 122°22'0 0.0
2017-Sep-25 05:57N 37°49' W 122°22'0 0.0
2017-Sep-25 05:27N 37°49' W 122°22'0 0.0
2017-Sep-25 04:57N 37°49' W 122°22'0 0.0
2017-Sep-25 04:28N 37°49' W 122°22'0 0.0
2017-Sep-25 03:58N 37°49' W 122°22'0 0.0
2017-Sep-25 03:25N 37°49' W 122°22'0 0.0
2017-Sep-25 03:01N 37°49' W 122°22'0 0.0
2017-Sep-25 02:30N 37°49' W 122°22'0 0.0
2017-Sep-25 02:00N 37°49' W 122°22'0 0.0
2017-Sep-25 01:30N 37°49' W 122°22'0 0.0
2017-Sep-25 00:54N 37°49' W 122°22'0 0.0
2017-Sep-25 00:30N 37°49' W 122°22'0 0.0
2017-Sep-24 23:58N 37°49' W 122°22'0 0.0
2017-Sep-24 23:30N 37°49' W 122°22'0 0.0
2017-Sep-24 23:00N 37°49' W 122°22'0 0.0
2017-Sep-24 22:27N 37°49' W 122°22'0 0.0
2017-Sep-24 21:57N 37°49' W 122°22'0 0.0
2017-Sep-24 21:27N 37°49' W 122°22'0 0.0
2017-Sep-24 20:57N 37°49' W 122°22'0 0.0
2017-Sep-24 20:27N 37°49' W 122°22'0 0.0
2017-Sep-24 19:57N 37°49' W 122°22'0 0.0
2017-Sep-24 19:27N 37°49' W 122°22'0 0.0
2017-Sep-24 18:57N 37°49' W 122°22'0 0.0
2017-Sep-24 18:27N 37°49' W 122°22'0 0.0
2017-Sep-24 17:57N 37°49' W 122°22'0 0.0
2017-Sep-24 17:27N 37°49' W 122°22'0 0.0
2017-Sep-24 16:58N 37°49' W 122°22'0 0.0
2017-Sep-24 16:31N 37°49' W 122°22'0 0.0
2017-Sep-24 15:58N 37°49' W 122°22'0 0.0
2017-Sep-24 15:30N 37°49' W 122°22'0 0.0
2017-Sep-24 14:58N 37°49' W 122°22'0 0.0
2017-Sep-24 14:30N 37°49' W 122°22'0 0.0
2017-Sep-24 14:00N 37°49' W 122°22'0 0.0
2017-Sep-24 13:30N 37°49' W 122°22'0 0.0
2017-Sep-24 13:00N 37°49' W 122°22'0 0.0
2017-Sep-24 12:25N 37°49' W 122°22'0 0.0
2017-Sep-24 11:58N 37°49' W 122°22'0 0.0
2017-Sep-24 11:28N 37°49' W 122°22'0 0.0
2017-Sep-24 10:58N 37°49' W 122°22'0 0.0
2017-Sep-24 10:27N 37°49' W 122°22'0 0.0
2017-Sep-24 09:57N 37°49' W 122°22'0 0.0
2017-Sep-24 09:27N 37°49' W 122°22'0 0.0
2017-Sep-24 08:57N 37°49' W 122°22'0 0.0
2017-Sep-24 08:30N 37°49' W 122°22'0 0.0
2017-Sep-24 08:00N 37°49' W 122°22'0 0.0
2017-Sep-24 07:30N 37°49' W 122°22'0 0.0
2017-Sep-24 07:00N 37°49' W 122°22'0 0.0
2017-Sep-24 06:30N 37°49' W 122°22'0 0.0
2017-Sep-24 06:00N 37°49' W 122°22'0 0.0
2017-Sep-24 05:28N 37°49' W 122°22'0 0.0
2017-Sep-24 04:55N 37°49' W 122°22'0 0.0
2017-Sep-24 04:28N 37°49' W 122°22'0 0.0
2017-Sep-24 03:58N 37°49' W 122°22'0 0.0
2017-Sep-24 03:28N 37°49' W 122°22'0 0.0
2017-Sep-24 02:58N 37°49' W 122°22'0 0.0
2017-Sep-24 02:28N 37°49' W 122°22'0 0.0
2017-Sep-24 01:58N 37°49' W 122°22'0 0.0
2017-Sep-24 01:28N 37°49' W 122°22'0 0.0
2017-Sep-24 00:57N 37°49' W 122°22'0 0.0
2017-Sep-24 00:27N 37°49' W 122°22'0 0.0
2017-Sep-24 00:00N 37°49' W 122°22'0 0.0
2017-Sep-23 23:30N 37°49' W 122°22'0 0.0
2017-Sep-23 23:00N 37°49' W 122°22'0 0.0
2017-Sep-23 22:30N 37°49' W 122°22'0 0.0
2017-Sep-23 22:00N 37°49' W 122°22'0 0.0
2017-Sep-23 21:30N 37°49' W 122°22'  

Dump ship's entire track history